N997RC LLHZ-LLHZ

Flight info

Callsign N997RC
Flight time 0h 53m
Altitude 15000
Route ATS ROUTES
Aircraft BE20/L-V/N

Departure

Time 2026-05-03 22:11
Airport Herzliya Airport (LLHZ)

Arrival

Time 2026-05-03 23:04
Airport Herzliya Airport (LLHZ)
Time Latitude Longitude Altitude Speed Heading
2026-05-03 22:00 32.17885 34.83766 117 ft 0 kts 290°
2026-05-03 22:01 32.17885 34.83767 119 ft 0 kts 290°
2026-05-03 22:07 32.17885 34.83766 119 ft 0 kts 290°
2026-05-03 22:07 32.17885 34.83767 117 ft 0 kts 290°
2026-05-03 22:07 32.17885 34.83766 119 ft 0 kts 290°
2026-05-03 22:08 32.17898 34.83762 119 ft 6 kts 41°
2026-05-03 22:08 32.17881 34.83843 120 ft 5 kts 101°
2026-05-03 22:09 32.17882 34.83853 120 ft 6 kts 67°
2026-05-03 22:09 32.17914 34.83849 124 ft 0 kts 292°
2026-05-03 22:10 32.17917 34.83839 121 ft 14 kts 291°
2026-05-03 22:10 32.18030 34.83458 105 ft 83 kts 289°
2026-05-03 22:10 32.18366 34.82723 274 ft 119 kts 331°
2026-05-03 22:10 32.19211 34.83042 616 ft 145 kts 25°
2026-05-03 22:11 32.20205 34.83349 955 ft 154 kts 330°
2026-05-03 22:11 32.20772 34.82296 1117 ft 167 kts 289°
2026-05-03 22:11 32.21147 34.80958 1359 ft 177 kts 281°
2026-05-03 22:11 32.21373 34.79467 1352 ft 185 kts 279°
2026-05-03 22:12 32.21646 34.77993 1523 ft 186 kts 281°
2026-05-03 22:12 32.21988 34.76536 1692 ft 183 kts 292°
2026-05-03 22:12 32.22762 34.75357 1984 ft 183 kts 312°
2026-05-03 22:12 32.23692 34.74303 1985 ft 188 kts 318°
2026-05-03 22:13 32.24871 34.73573 1989 ft 195 kts 334°
2026-05-03 22:13 32.26152 34.73022 1994 ft 197 kts 336°
2026-05-03 22:13 32.27456 34.72481 1997 ft 199 kts 336°
2026-05-03 22:13 32.28731 34.71869 2000 ft 198 kts 331°
2026-05-03 22:14 32.29973 34.71212 2001 ft 198 kts 331°
2026-05-03 22:14 32.31259 34.70523 2001 ft 208 kts 331°
2026-05-03 22:14 32.32619 34.69782 2002 ft 221 kts 331°
2026-05-03 22:14 32.34034 34.69006 2001 ft 227 kts 331°
2026-05-03 22:15 32.35477 34.68211 2003 ft 230 kts 331°
2026-05-03 22:15 32.36913 34.67416 2000 ft 232 kts 331°
2026-05-03 22:15 32.38419 34.66738 2000 ft 234 kts 344°
2026-05-03 22:15 32.40062 34.66627 2002 ft 240 kts
2026-05-03 22:16 32.41614 34.67178 2497 ft 225 kts 26°
2026-05-03 22:16 32.42459 34.68590 2980 ft 215 kts 76°
2026-05-03 22:16 32.42801 34.70389 2966 ft 226 kts 99°
2026-05-03 22:16 32.42135 34.71976 2992 ft 224 kts 110°
2026-05-03 22:17 32.41542 34.73730 2985 ft 236 kts 116°
2026-05-03 22:17 32.40907 34.75569 2990 ft 245 kts 114°
2026-05-03 22:17 32.40272 34.77465 2996 ft 248 kts 115°
2026-05-03 22:17 32.39620 34.79356 3102 ft 244 kts 116°
2026-05-03 22:18 32.38840 34.81078 3472 ft 234 kts 125°
2026-05-03 22:18 32.38005 34.82671 3831 ft 230 kts 126°
2026-05-03 22:18 32.37141 34.84293 3986 ft 239 kts 125°
2026-05-03 22:18 32.36452 34.86122 3984 ft 249 kts 109°
2026-05-03 22:19 32.35975 34.88083 3998 ft 254 kts 108°
2026-05-03 22:19 32.35487 34.90104 4002 ft 256 kts 108°
2026-05-03 22:19 32.34997 34.92148 3999 ft 259 kts 108°
2026-05-03 22:19 32.34508 34.94198 4002 ft 260 kts 108°
2026-05-03 22:20 32.34022 34.96255 4128 ft 254 kts 105°
2026-05-03 22:20 32.33792 34.98269 4492 ft 243 kts 95°
2026-05-03 22:20 32.34063 35.00189 4858 ft 234 kts 61°
2026-05-03 22:20 32.34930 35.01788 4988 ft 239 kts 56°
2026-05-03 22:21 32.35925 35.03411 4995 ft 248 kts 41°
2026-05-03 22:21 32.37310 35.04598 5208 ft 240 kts 21°
2026-05-03 22:21 32.38851 35.05191 5638 ft 227 kts
2026-05-03 22:21 32.40393 35.05467 6021 ft 225 kts
2026-05-03 22:22 32.41885 35.06111 6364 ft 235 kts 27°
2026-05-03 22:22 32.43148 35.07329 6715 ft 233 kts 33°
2026-05-03 22:22 32.44403 35.08560 7059 ft 237 kts 40°
2026-05-03 22:22 32.45554 35.09999 7417 ft 243 kts 44°
2026-05-03 22:23 32.46681 35.11521 7771 ft 248 kts 46°
2026-05-03 22:23 32.47801 35.13093 8122 ft 250 kts 47°
2026-05-03 22:23 32.48931 35.14681 8465 ft 253 kts 47°
2026-05-03 22:23 32.50108 35.16249 8823 ft 254 kts 44°
2026-05-03 22:24 32.51326 35.17799 8989 ft 264 kts 44°
2026-05-03 22:24 32.52605 35.19423 8994 ft 275 kts 44°
2026-05-03 22:24 32.53931 35.21101 9003 ft 281 kts 44°
2026-05-03 22:24 32.55278 35.22807 8995 ft 286 kts 44°
2026-05-03 22:25 32.56643 35.24531 9000 ft 288 kts 44°
2026-05-03 22:25 32.58018 35.26268 9000 ft 290 kts 44°
2026-05-03 22:25 32.59402 35.28014 9002 ft 291 kts 44°
2026-05-03 22:25 32.60790 35.29763 9001 ft 291 kts 44°
2026-05-03 22:26 32.62180 35.31512 9001 ft 292 kts 44°
2026-05-03 22:26 32.63559 35.33249 9000 ft 292 kts 44°
2026-05-03 22:26 32.64959 35.35016 8874 ft 293 kts 44°
2026-05-03 22:26 32.66353 35.36784 8749 ft 292 kts 44°
2026-05-03 22:27 32.67741 35.38542 8626 ft 292 kts 44°
2026-05-03 22:27 32.68661 35.39703 8533 ft 290 kts 44°
2026-05-03 22:27 32.70036 35.41441 8417 ft 287 kts 44°
2026-05-03 22:27 32.71403 35.43177 8290 ft 287 kts 44°
2026-05-03 22:28 32.72769 35.44909 8166 ft 287 kts 44°
2026-05-03 22:28 32.74129 35.46633 8033 ft 285 kts 44°
2026-05-03 22:28 32.75484 35.48348 7913 ft 284 kts 44°
2026-05-03 22:28 32.76837 35.50067 7781 ft 284 kts 44°
2026-05-03 22:29 32.78186 35.51782 7661 ft 283 kts 44°
2026-05-03 22:29 32.79525 35.53489 7532 ft 282 kts 43°
2026-05-03 22:29 32.80857 35.55200 7394 ft 283 kts 44°
2026-05-03 22:29 32.82170 35.56927 7166 ft 275 kts 45°
2026-05-03 22:30 32.83328 35.58642 6853 ft 259 kts 52°
2026-05-03 22:30 32.84348 35.60347 6540 ft 247 kts 52°
2026-05-03 22:30 32.85317 35.61986 6227 ft 237 kts 52°
2026-05-03 22:30 32.86235 35.63550 5918 ft 229 kts 52°
2026-05-03 22:31 32.87135 35.65082 5608 ft 223 kts 52°
2026-05-03 22:31 32.88126 35.66450 5297 ft 215 kts 35°
2026-05-03 22:31 32.89401 35.67313 4924 ft 207 kts 15°
2026-05-03 22:31 32.90695 35.68051 4537 ft 202 kts 16°
2026-05-03 22:32 32.91965 35.68059 4115 ft 177 kts 312°
2026-05-03 22:32 32.92088 35.66711 3104 ft 195 kts 230°
2026-05-03 22:32 32.90903 35.66515 3243 ft 179 kts 150°
2026-05-03 22:32 32.89945 35.67409 2953 ft 175 kts 146°
2026-05-03 22:33 32.88999 35.68172 2814 ft 156 kts 164°
2026-05-03 22:33 32.87976 35.67985 2311 ft 162 kts 219°
2026-05-03 22:33 32.87018 35.67258 2449 ft 161 kts 211°
2026-05-03 22:33 32.86111 35.66529 2253 ft 163 kts 235°
2026-05-03 22:34 32.85732 35.65272 2126 ft 168 kts 264°
2026-05-03 22:34 32.85962 35.63915 1853 ft 175 kts 298°
2026-05-03 22:34 32.86927 35.63031 1629 ft 174 kts 343°
2026-05-03 22:34 32.88147 35.63056 1480 ft 184 kts 353°
2026-05-03 22:35 32.89319 35.62706 1556 ft 170 kts 332°
2026-05-03 22:35 32.90401 35.62180 1638 ft 167 kts 329°
2026-05-03 22:35 32.91441 35.61663 1913 ft 157 kts 332°
2026-05-03 22:35 32.92436 35.61157 2195 ft 157 kts 327°
2026-05-03 22:36 32.93407 35.60491 2350 ft 150 kts 322°
2026-05-03 22:36 32.94211 35.59928 2147 ft 124 kts 321°
2026-05-03 22:36 32.94892 35.59398 1842 ft 117 kts 319°
2026-05-03 22:36 32.95619 35.58885 1559 ft 124 kts 323°
2026-05-03 22:37 32.96380 35.58373 1340 ft 124 kts 324°
2026-05-03 22:37 32.97125 35.57849 1121 ft 127 kts 327°
2026-05-03 22:37 32.97901 35.57325 915 ft 125 kts 327°
2026-05-03 22:37 32.98465 35.56944 894 ft 40 kts 330°
2026-05-03 22:38 32.98581 35.56865 894 ft 6 kts 350°
2026-05-03 22:38 32.98524 35.56903 894 ft 32 kts 155°
2026-05-03 22:38 32.98255 35.57079 895 ft 53 kts 148°
2026-05-03 22:38 32.97999 35.57257 896 ft 43 kts 150°
2026-05-03 22:39 32.97842 35.57365 895 ft 8 kts 160°
2026-05-03 22:39 32.97815 35.57342 897 ft 7 kts 242°
2026-05-03 22:39 32.97824 35.57300 901 ft 7 kts 40°
2026-05-03 22:39 32.97825 35.57309 901 ft 0 kts 114°
2026-05-03 22:44 32.97828 35.57366 895 ft 9 kts
2026-05-03 22:44 32.97854 35.57357 896 ft 0 kts 330°
2026-05-03 22:45 32.97876 35.57341 896 ft 22 kts 330°
2026-05-03 22:45 32.98210 35.57109 896 ft 87 kts 328°
2026-05-03 22:45 32.98872 35.56687 1058 ft 119 kts 328°
2026-05-03 22:45 32.99718 35.56551 1460 ft 144 kts 21°
2026-05-03 22:46 33.00083 35.57619 1765 ft 161 kts 123°
2026-05-03 22:46 32.99184 35.58363 2226 ft 153 kts 164°
2026-05-03 22:46 32.98111 35.58559 2549 ft 172 kts 183°
2026-05-03 22:46 32.96836 35.58728 2777 ft 189 kts 179°
2026-05-03 22:47 32.95510 35.58609 2975 ft 199 kts 199°
2026-05-03 22:47 32.94236 35.57874 2987 ft 208 kts 218°
2026-05-03 22:47 32.93021 35.56856 2983 ft 217 kts 217°
2026-05-03 22:47 32.91709 35.55922 2979 ft 223 kts 209°
2026-05-03 22:48 32.90278 35.55168 2982 ft 225 kts 206°
2026-05-03 22:48 32.88827 35.54440 2979 ft 227 kts 206°
2026-05-03 22:48 32.87385 35.53681 2985 ft 226 kts 210°
2026-05-03 22:48 32.86015 35.52756 2982 ft 227 kts 213°
2026-05-03 22:49 32.84679 35.51796 2983 ft 227 kts 214°
2026-05-03 22:49 32.83313 35.50833 2984 ft 228 kts 211°
2026-05-03 22:49 32.81918 35.49913 2980 ft 230 kts 212°
2026-05-03 22:49 32.80514 35.49005 2977 ft 229 kts 211°
2026-05-03 22:50 32.79106 35.48115 2977 ft 230 kts 211°
2026-05-03 22:50 32.77694 35.47227 2978 ft 229 kts 211°
2026-05-03 22:50 32.76287 35.46332 2979 ft 229 kts 211°
2026-05-03 22:50 32.74869 35.45440 2980 ft 230 kts 211°
2026-05-03 22:51 32.73458 35.44552 2979 ft 229 kts 211°
2026-05-03 22:51 32.72051 35.43664 2977 ft 229 kts 211°
2026-05-03 22:51 32.70647 35.42773 2974 ft 229 kts 211°
2026-05-03 22:51 32.69246 35.41885 2986 ft 227 kts 212°
2026-05-03 22:52 32.67975 35.40784 2983 ft 226 kts 224°
2026-05-03 22:52 32.66840 35.39511 2986 ft 224 kts 226°
2026-05-03 22:52 32.65795 35.38152 2986 ft 223 kts 232°
2026-05-03 22:52 32.64847 35.36727 2987 ft 222 kts 235°
2026-05-03 22:53 32.64004 35.35188 2989 ft 223 kts 240°
2026-05-03 22:53 32.63237 35.33593 2989 ft 223 kts 242°
2026-05-03 22:53 32.62471 35.31985 2994 ft 224 kts 240°
2026-05-03 22:53 32.61617 35.30431 2994 ft 223 kts 237°
2026-05-03 22:54 32.60841 35.28843 2993 ft 223 kts 244°
2026-05-03 22:54 32.60190 35.27176 2990 ft 223 kts 247°
2026-05-03 22:54 32.59578 35.25479 2994 ft 223 kts 248°
2026-05-03 22:54 32.58975 35.23781 2992 ft 223 kts 248°
2026-05-03 22:55 32.58387 35.22105 2996 ft 223 kts 248°
2026-05-03 22:55 32.57795 35.20406 2993 ft 223 kts 248°
2026-05-03 22:55 32.57103 35.18768 2992 ft 223 kts 236°
2026-05-03 22:55 32.56102 35.17366 2993 ft 224 kts 225°
2026-05-03 22:56 32.54847 35.16250 2993 ft 226 kts 216°
2026-05-03 22:56 32.53558 35.15233 2989 ft 220 kts 221°
2026-05-03 22:56 32.52512 35.13905 2996 ft 221 kts 236°
2026-05-03 22:56 32.51728 35.12375 2996 ft 220 kts 246°
2026-05-03 22:57 32.51144 35.10700 2999 ft 220 kts 250°
2026-05-03 22:57 32.50618 35.08995 2996 ft 221 kts 250°
2026-05-03 22:57 32.50019 35.07328 2997 ft 220 kts 242°
2026-05-03 22:57 32.49190 35.05801 2997 ft 222 kts 236°
2026-05-03 22:58 32.48295 35.04303 2933 ft 225 kts 236°
2026-05-03 22:58 32.47331 35.02815 2734 ft 229 kts 232°
2026-05-03 22:58 32.46265 35.01403 2531 ft 233 kts 223°
2026-05-03 22:58 32.44881 35.00378 2342 ft 236 kts 208°
2026-05-03 22:59 32.43393 34.99544 2143 ft 237 kts 210°
2026-05-03 22:59 32.41986 34.98603 1996 ft 232 kts 214°
2026-05-03 22:59 32.40727 34.97465 1997 ft 225 kts 222°
2026-05-03 22:59 32.39480 34.96346 1997 ft 223 kts 217°
2026-05-03 23:00 32.38208 34.95299 1995 ft 223 kts 218°
2026-05-03 23:00 32.36938 34.94237 1993 ft 223 kts 218°
2026-05-03 23:00 32.35669 34.93170 1994 ft 225 kts 218°
2026-05-03 23:00 32.34389 34.92097 1995 ft 225 kts 218°
2026-05-03 23:01 32.33115 34.91027 1994 ft 224 kts 218°
2026-05-03 23:01 32.31723 34.90193 1995 ft 227 kts 200°
2026-05-03 23:01 32.30145 34.89918 1997 ft 231 kts 187°
2026-05-03 23:01 32.28562 34.89792 1994 ft 230 kts 189°
2026-05-03 23:02 32.26981 34.89513 1996 ft 229 kts 195°
2026-05-03 23:02 32.25417 34.89132 1998 ft 229 kts 195°
2026-05-03 23:02 32.23853 34.88732 1998 ft 230 kts 195°
2026-05-03 23:02 32.22423 34.88056 1781 ft 211 kts 217°
2026-05-03 23:03 32.21257 34.87127 1484 ft 195 kts 220°
2026-05-03 23:03 32.20298 34.86151 1225 ft 154 kts 223°
2026-05-03 23:03 32.19481 34.85657 852 ft 118 kts 195°
2026-05-03 23:03 32.18724 34.85452 631 ft 112 kts 199°
2026-05-03 23:04 32.17936 34.85226 548 ft 121 kts 197°
2026-05-03 23:04 32.17744 34.84446 277 ft 115 kts 283°
2026-05-03 23:04 32.17977 34.83629 112 ft 88 kts 290°
2026-05-03 23:04 32.18059 34.83350 101 ft 11 kts 267°
2026-05-03 23:05 32.18017 34.83389 104 ft 21 kts 108°
2026-05-03 23:05 32.17942 34.83621 111 ft 35 kts 126°
2026-05-03 23:05 32.17905 34.83700 116 ft 0 kts 109°